Metar Cercanos

 

LEPA - Palma De Mallorc, Spain
Distance from station: ONO 38km
Actualización: 24/09/2018 07:00
Despejado
Despejado
 Viento del N
Viento: N 2 km/h
Temperatura: 17°C
Rocío: 17°C
Humedad: 100%
Barómetro: 1020 hPa
Resumen: Despejado
Visibility: greater than 10 km
2018/09/24 05:00 LEPA 240500Z 36001KT CAVOK 17/17 Q1020 NOSIG
LEMH - Mahon/Menorca Is, Spain
Distance from station: ENE 105km
Actualización: 24/09/2018 07:00
Despejado
Despejado
 Viento del N
Viento: N 7 km/h
Temperatura: 21°C
Rocío: 20°C
Humedad: 94%
Barómetro: 1020 hPa
Resumen: Despejado
Visibility: greater than 10 km
2018/09/24 05:00 LEMH 240500Z 36004KT CAVOK 21/20 Q1020
 
LEIB - Ibiza/Es Codola, Spain
Distance from station: OSO 165km
Actualización: 24/09/2018 07:00
Despejado
Despejado
 Viento del NNO
Viento: NNO 4 km/h
Temperatura: 20°C
Rocío: 19°C
Humedad: 94%
Barómetro: 1019 hPa
Resumen: Despejado
Visibility: greater than 10 km
2018/09/24 05:00 LEIB 240500Z 33002KT CAVOK 20/19 Q1019 NOSIG
LEBL - Barcelona Airpor, Spain
Distance from station: NNO 225km
Actualización: 24/09/2018 07:00
Few Clouds
Few Clouds
 Viento del NNO
Viento: NNO 11 km/h
Temperatura: 22°C
Rocío: 20°C
Humedad: 88%
Barómetro: 1019 hPa
Clouds: Few Clouds
Visibility: 8 km
Cloud details: Few Clouds 610 m
2018/09/24 05:00 LEBL 240500Z 33006KT 8000 FEW020 22/20 Q1019 NOSIG
 
LEVC - Valencia (civ/Mi, Spain
Distance from station: NO 188km
Actualización: 24/09/2018 07:00
Despejado
Despejado
 Viento del varies
Viento: varies 4 km/h
Temperatura: 22°C
Rocío: 19°C
Humedad: 83%
Barómetro: 1019 hPa
Resumen: Despejado
Visibility: greater than 10 km
2018/09/24 05:00 LEVC 240500Z VRB02KT CAVOK 22/19 Q1019 NOSIG
LEGE - Gerona/Costa Bra, Spain
Distance from station: N 276km
Actualización: 24/09/2018 07:00
Despejado
Despejado
 Viento del N
Viento: N 9 km/h
Temperatura: 19°C
Rocío: 19°C
Humedad: 100%
Barómetro: 1020 hPa
Resumen: Despejado
Visibility: greater than 10 km
2018/09/24 05:00 LEGE 240500Z 01005KT CAVOK 19/19 Q1020
 
LEAL - Alicante/El Alte, Spain
Distance from station: OSO 344km
Actualización: 24/09/2018 07:00
Despejado
Despejado
 Viento del SE
Viento: SE 6 km/h
Temperatura: 20°C
Rocío: 16°C
Humedad: 78%
Barómetro: 1019 hPa
Resumen: Despejado
Visibility: greater than 10 km
2018/09/24 05:00 LEAL 240500Z 13003KT 100V230 CAVOK 20/16 Q1019 NOSIG
LEAM - Almeria Airport, Spain
Distance from station: SSO 56km
Actualización: 24/09/2018 07:00
Despejado
Despejado
 Viento del NNO
Viento: NNO 11 km/h
Temperatura: 24°C
Rocío: 11°C
Humedad: 44%
Barómetro: 1019 hPa
Resumen: Despejado
Visibility: greater than 10 km
2018/09/24 05:00 LEAM 240500Z 34006KT CAVOK 24/11 Q1019
 
LEZG - Zaragoza (mil/Ci, Spain
Distance from station: NO 431km
Actualización: 24/09/2018 07:00
Despejado
Despejado
 Viento del ONO
Viento: ONO 22 km/h
Temperatura: 21°C
Rocío: 16°C
Humedad: 73%
Barómetro: 1024 hPa
Resumen: Despejado
Visibility: greater than 10 km
2018/09/24 05:00 LEZG 240500Z 29012KT CAVOK 21/16 Q1024
LEMD - Madrid/Barajas, Spain
Distance from station: ONO 234km
Actualización: 24/09/2018 07:00
Despejado
Despejado
 Viento del NNO
Viento: NNO 13 km/h
Temperatura: 20°C
Rocío: 9°C
Humedad: 49%
Barómetro: 1024 hPa
Resumen: Despejado
Visibility: greater than 10 km
2018/09/24 05:00 LEMD 240500Z 34007KT CAVOK 20/09 Q1024 NOSIG
 
LEGR - Granada Airport, Spain
Distance from station: OSO 62km
Actualización: 24/09/2018 07:00
Despejado
Despejado
 Viento del calm
Viento: Calma
Temperatura: 15°C
Rocío: 13°C
Humedad: 88%
Barómetro: 1022 hPa
Resumen: Despejado
Visibility: greater than 10 km
2018/09/24 05:00 LEGR 240500Z 00000KT CAVOK 15/13 Q1022
LEMG - Malaga (civ/Mil), Spain
Distance from station: OSO 227km
Actualización: 24/09/2018 07:00
Despejado
Despejado
 Viento del ONO
Viento: ONO 15 km/h
Temperatura: 19°C
Rocío: 13°C
Humedad: 68%
Barómetro: 1019 hPa
Resumen: Despejado
Visibility: greater than 10 km
2018/09/24 05:00 LEMG 240500Z 29008KT CAVOK 19/13 Q1019 NOSIG
 
LEZL - Sevilla (civ/Mil, Spain
Distance from station: S 318km
Actualización: 24/09/2018 07:00
Despejado
Despejado
 Viento del varies
Viento: varies 2 km/h
Temperatura: 20°C
Rocío: 14°C
Humedad: 69%
Barómetro: 1018 hPa
Resumen: Despejado
Visibility: greater than 10 km
2018/09/24 05:00 LEZL 240500Z VRB01KT CAVOK 20/14 Q1018 NOSIG
LEVT - Vitoria, Spain
Distance from station: NO 226km
Actualización: 24/09/2018 07:00
Light drizzle, Muy nuboso
Light drizzle, Muy nuboso
 Viento del N
Viento: N 17 km/h
Temperatura: 16°C
Rocío: 14°C
Humedad: 88%
Barómetro: 1028 hPa
Resumen: Light Drizzle
Clouds: Muy nuboso
Visibility: 8 km
Cloud details: Parcialmente nuboso 366 m
Muy nuboso 701 m
2018/09/24 05:00 LEVT 240500Z 01009KT 8000 -DZ SCT012 BKN023 16/14 Q1028
 
LEBB - Bilbao/Sondica, Spain
Distance from station: NNO 235km
Actualización: 24/09/2018 07:00
Light drizzle, Muy nuboso
Light drizzle, Muy nuboso
 Viento del O
Viento: O 6 km/h
Temperatura: 17°C
Rocío: 16°C
Humedad: 94%
Barómetro: 1029 hPa
Resumen: Light Drizzle
Clouds: Muy nuboso
Visibility: 8 km
Cloud details: Parcialmente nuboso 366 m
Muy nuboso 762 m
2018/09/24 05:00 LEBB 240500Z 27003KT 240V300 8000 -DZ SCT012 BKN025 17/16 Q1029 TEMPO 3000 -RA BKN010
LESO - San Sebastian/Fu, Spain
Distance from station: N 231km
Actualización: 24/09/2018 07:00
Muy nuboso
Muy nuboso
 Viento del NNE
Viento: NNE 15 km/h
Temperatura: 18°C
Rocío: 16°C
Humedad: 88%
Barómetro: 1028 hPa
Clouds: Muy nuboso
Visibility: 10 km
Cloud details: Parcialmente nuboso 366 m
Muy nuboso 853 m
2018/09/24 05:00 LESO 240500Z 02008KT 320V060 9999 SCT012 BKN028 18/16 Q1028
 
LEVD - Valladolid(Mil/C, Spain
Distance from station: ONO 239km
Actualización: 24/09/2018 07:00
Despejado
Despejado
 Viento del NE
Viento: NE 15 km/h
Temperatura: 16°C
Rocío: 13°C
Humedad: 83%
Barómetro: 1027 hPa
Resumen: Despejado
Visibility: greater than 10 km
2018/09/24 05:00 LEVD 240500Z 05008KT CAVOK 16/13 Q1027
LESA - Salamanca (civ/M, Spain
Distance from station: ONO 349km
Actualización: 24/09/2018 07:00
Despejado
Despejado
 Viento del NE
Viento: NE 6 km/h
Temperatura: 14°C
Rocío: 12°C
Humedad: 88%
Barómetro: 1026 hPa
Resumen: Despejado
Visibility: greater than 10 km
2018/09/24 05:00 LESA 240500Z 05003KT CAVOK 14/12 Q1026
 
LEXJ - Santander/Paraya, Spain
Distance from station: NNO 247km
Actualización: 24/09/2018 07:00
Muy nuboso
Muy nuboso
 Viento del E
Viento: E 11 km/h
Temperatura: 17°C
Rocío: 15°C
Humedad: 88%
Barómetro: 1029 hPa
Clouds: Muy nuboso
Visibility: 10 km
Cloud details: Few Clouds 488 m
Muy nuboso 732 m
2018/09/24 05:00 LEXJ 240500Z 09006KT 060V120 9999 FEW016 BKN024 17/15 Q1029
LEAS - Asturias/Aviles, Spain
Distance from station: NO 214km
Actualización: 24/09/2018 07:00
Light drizzle, Muy nuboso
Light drizzle, Muy nuboso
 Viento del E
Viento: E 17 km/h
Temperatura: 15°C
Rocío: 15°C
Humedad: 100%
Barómetro: 1030 hPa
Resumen: Light Drizzle
Clouds: Muy nuboso
Visibility: 5 km
Cloud details: Few Clouds 61 m
Muy nuboso 152 m
Muy nuboso 396 m
2018/09/24 05:00 LEAS 240500Z 08009KT 020V110 4600 2200NW -DZ FEW002 BKN005 BKN013 15/15 Q1030 NOSIG
 
LECO - La Coruna/Alvedr, Spain
Distance from station: ONO 222km
Actualización: 24/09/2018 07:00
Muy nuboso
Muy nuboso
 Viento del NNE
Viento: NNE 9 km/h
Temperatura: 17°C
Rocío: 15°C
Humedad: 88%
Barómetro: 1027 hPa
Clouds: Muy nuboso
Visibility: 10 km
Cloud details: Muy nuboso 762 m
2018/09/24 05:00 LECO 240500Z 02005KT 330V060 9999 BKN025 17/15 Q1027 NOSIG
LEVX - Vigo/Peinador, Spain
Distance from station: O 214km
Actualización: 24/09/2018 07:00
Despejado
Despejado
 Viento del varies
Viento: varies 4 km/h
Temperatura: 17°C
Rocío: 16°C
Humedad: 94%
Barómetro: 1024 hPa
Resumen: Despejado
Visibility: greater than 10 km
2018/09/24 05:00 LEVX 240500Z VRB02KT CAVOK 17/16 Q1024 NOSIG